sensor_id;sensor_type;location;lat;lon;timestamp;pressure;altitude;pressure_sealevel;temperature;humidity
54816;BME280;40715;55.752;37.884;2024-03-08T00:02:36;99012.13;;;29.61;21.48
54816;BME280;40715;55.752;37.884;2024-03-08T00:05:05;99010.41;;;29.60;21.30
54816;BME280;40715;55.752;37.884;2024-03-08T00:07:32;99008.56;;;29.60;21.35
54816;BME280;40715;55.752;37.884;2024-03-08T00:09:59;99001.25;;;29.61;21.30
54816;BME280;40715;55.752;37.884;2024-03-08T00:12:27;99000.44;;;29.60;21.23
54816;BME280;40715;55.752;37.884;2024-03-08T00:14:54;98998.72;;;29.59;21.04
54816;BME280;40715;55.752;37.884;2024-03-08T00:17:21;98999.06;;;29.56;21.50
54816;BME280;40715;55.752;37.884;2024-03-08T00:19:51;98992.28;;;29.60;21.20
54816;BME280;40715;55.752;37.884;2024-03-08T00:22:19;98985.16;;;29.59;21.27
54816;BME280;40715;55.752;37.884;2024-03-08T00:24:46;98972.41;;;29.60;21.31
54816;BME280;40715;55.752;37.884;2024-03-08T00:27:13;98978.88;;;29.59;21.20
54816;BME280;40715;55.752;37.884;2024-03-08T00:29:40;98985.16;;;29.59;21.20
54816;BME280;40715;55.752;37.884;2024-03-08T00:32:07;98977.00;;;29.59;21.21
54816;BME280;40715;55.752;37.884;2024-03-08T00:34:37;98976.84;;;29.61;21.37
54816;BME280;40715;55.752;37.884;2024-03-08T00:37:04;98964.44;;;29.58;21.38
54816;BME280;40715;55.752;37.884;2024-03-08T00:39:31;98958.38;;;29.56;21.04
54816;BME280;40715;55.752;37.884;2024-03-08T00:41:59;98960.06;;;29.57;21.10
54816;BME280;40715;55.752;37.884;2024-03-08T00:44:26;98958.38;;;29.56;21.22
54816;BME280;40715;55.752;37.884;2024-03-08T00:46:53;98949.22;;;29.57;21.11
54816;BME280;40715;55.752;37.884;2024-03-08T00:49:21;98940.38;;;29.55;21.42
54816;BME280;40715;55.752;37.884;2024-03-08T00:51:49;98935.97;;;29.54;21.24
54816;BME280;40715;55.752;37.884;2024-03-08T00:54:16;98939.38;;;29.56;21.25
54816;BME280;40715;55.752;37.884;2024-03-08T00:56:43;98930.38;;;29.56;21.02
54816;BME280;40715;55.752;37.884;2024-03-08T00:59:11;98924.97;;;29.56;21.13
54816;BME280;40715;55.752;37.884;2024-03-08T01:01:39;98934.13;;;29.55;21.17
54816;BME280;40715;55.752;37.884;2024-03-08T01:04:06;98933.25;;;29.54;21.22
54816;BME280;40715;55.752;37.884;2024-03-08T01:06:34;98931.41;;;29.55;21.15
54816;BME280;40715;55.752;37.884;2024-03-08T01:09:01;98933.25;;;29.54;21.18
54816;BME280;40715;55.752;37.884;2024-03-08T01:11:28;98930.53;;;29.54;21.21
54816;BME280;40715;55.752;37.884;2024-03-08T01:13:55;98931.41;;;29.55;21.02
54816;BME280;40715;55.752;37.884;2024-03-08T01:16:22;98940.38;;;29.55;20.99
54816;BME280;40715;55.752;37.884;2024-03-08T01:18:49;98922.41;;;29.54;20.99
54816;BME280;40715;55.752;37.884;2024-03-08T01:21:17;98928.00;;;29.53;21.11
54816;BME280;40715;55.752;37.884;2024-03-08T01:23:44;98916.31;;;29.52;21.12
54816;BME280;40715;55.752;37.884;2024-03-08T01:26:11;98922.75;;;29.51;21.14
54816;BME280;40715;55.752;37.884;2024-03-08T01:28:38;98918.84;;;29.54;20.84
54816;BME280;40715;55.752;37.884;2024-03-08T01:31:05;98916.13;;;29.54;21.05
54816;BME280;40715;55.752;37.884;2024-03-08T01:33:32;98919.03;;;29.52;20.85
54816;BME280;40715;55.752;37.884;2024-03-08T01:36:00;98908.81;;;29.54;21.11
54816;BME280;40715;55.752;37.884;2024-03-08T01:38:27;98918.66;;;29.55;20.88
54816;BME280;40715;55.752;37.884;2024-03-08T01:40:54;98913.41;;;29.54;21.09
54816;BME280;40715;55.752;37.884;2024-03-08T01:43:28;98910.53;;;29.55;21.28
54816;BME280;40715;55.752;37.884;2024-03-08T01:45:58;98907.81;;;29.55;21.11
54816;BME280;40715;55.752;37.884;2024-03-08T01:48:29;98914.25;;;29.54;21.00
54816;BME280;40715;55.752;37.884;2024-03-08T01:50:57;98907.34;;;29.52;21.19
54816;BME280;40715;55.752;37.884;2024-03-08T01:53:25;98910.69;;;29.54;20.91
54816;BME280;40715;55.752;37.884;2024-03-08T01:55:57;98911.53;;;29.54;21.03
54816;BME280;40715;55.752;37.884;2024-03-08T01:58:27;98906.28;;;29.53;21.03
54816;BME280;40715;55.752;37.884;2024-03-08T02:00:57;98896.13;;;29.55;20.64
54816;BME280;40715;55.752;37.884;2024-03-08T02:03:26;98890.53;;;29.56;21.09
54816;BME280;40715;55.752;37.884;2024-03-08T02:05:54;98895.09;;;29.56;20.75
54816;BME280;40715;55.752;37.884;2024-03-08T02:08:21;98890.69;;;29.55;20.77
54816;BME280;40715;55.752;37.884;2024-03-08T02:10:49;98888.81;;;29.55;20.70
54816;BME280;40715;55.752;37.884;2024-03-08T02:13:19;98880.69;;;29.55;20.80
54816;BME280;40715;55.752;37.884;2024-03-08T02:16:04;98878.59;;;29.66;20.94
54816;BME280;40715;55.752;37.884;2024-03-08T02:18:34;98883.22;;;29.57;20.87
54816;BME280;40715;55.752;37.884;2024-03-08T02:21:03;98887.97;;;29.55;20.70
54816;BME280;40715;55.752;37.884;2024-03-08T02:23:32;98878.97;;;29.54;20.99
54816;BME280;40715;55.752;37.884;2024-03-08T02:26:00;98886.09;;;29.55;20.63
54816;BME280;40715;55.752;37.884;2024-03-08T02:28:27;98879.84;;;29.55;20.85
54816;BME280;40715;55.752;37.884;2024-03-08T02:30:56;98871.53;;;29.56;20.65
54816;BME280;40715;55.752;37.884;2024-03-08T02:33:25;98873.72;;;29.53;20.93
54816;BME280;40715;55.752;37.884;2024-03-08T02:35:53;98877.31;;;29.53;20.70
54816;BME280;40715;55.752;37.884;2024-03-08T02:38:21;98875.59;;;29.52;20.74
54816;BME280;40715;55.752;37.884;2024-03-08T02:40:51;98876.78;;;29.50;20.73
54816;BME280;40715;55.752;37.884;2024-03-08T02:43:19;98879.69;;;29.48;20.97
54816;BME280;40715;55.752;37.884;2024-03-08T02:45:47;98858.97;;;29.47;20.88
54816;BME280;40715;55.752;37.884;2024-03-08T02:48:15;98866.47;;;29.45;21.08
54816;BME280;40715;55.752;37.884;2024-03-08T02:50:43;98864.41;;;29.47;21.08
54816;BME280;40715;55.752;37.884;2024-03-08T02:53:12;98864.75;;;29.44;21.24
54816;BME280;40715;55.752;37.884;2024-03-08T02:55:41;98851.56;;;29.41;21.01
54816;BME280;40715;55.752;37.884;2024-03-08T02:58:09;98857.63;;;29.43;21.26
54816;BME280;40715;55.752;37.884;2024-03-08T03:00:38;98855.09;;;29.41;21.18
54816;BME280;40715;55.752;37.884;2024-03-08T03:03:08;98843.59;;;29.39;21.28
54816;BME280;40715;55.752;37.884;2024-03-08T03:05:35;98840.69;;;29.41;21.40
54816;BME280;40715;55.752;37.884;2024-03-08T03:08:03;98834.94;;;29.36;21.34
54816;BME280;40715;55.752;37.884;2024-03-08T03:10:36;98839.19;;;29.38;21.39
54816;BME280;40715;55.752;37.884;2024-03-08T03:13:03;98844.59;;;29.38;21.33
54816;BME280;40715;55.752;37.884;2024-03-08T03:15:32;98837.50;;;29.37;21.40
54816;BME280;40715;55.752;37.884;2024-03-08T03:18:04;98840.22;;;29.37;21.29
54816;BME280;40715;55.752;37.884;2024-03-08T03:20:35;98835.97;;;29.35;21.60
54816;BME280;40715;55.752;37.884;2024-03-08T03:23:11;98832.75;;;29.39;21.32
54816;BME280;40715;55.752;37.884;2024-03-08T03:25:41;98822.41;;;29.35;21.50
54816;BME280;40715;55.752;37.884;2024-03-08T03:28:11;98831.56;;;29.34;21.31
54816;BME280;40715;55.752;37.884;2024-03-08T03:30:45;98820.91;;;29.32;21.49
54816;BME280;40715;55.752;37.884;2024-03-08T03:33:13;98814.47;;;29.33;21.54
54816;BME280;40715;55.752;37.884;2024-03-08T03:35:42;98811.91;;;29.32;21.58
54816;BME280;40715;55.752;37.884;2024-03-08T03:38:10;98804.78;;;29.31;21.51
54816;BME280;40715;55.752;37.884;2024-03-08T03:40:39;98806.16;;;29.26;21.47
54816;BME280;40715;55.752;37.884;2024-03-08T03:43:07;98812.94;;;29.31;21.46
54816;BME280;40715;55.752;37.884;2024-03-08T03:45:36;98814.63;;;29.32;21.34
54816;BME280;40715;55.752;37.884;2024-03-08T03:48:06;98816.00;;;29.27;21.42
54816;BME280;40715;55.752;37.884;2024-03-08T03:50:34;98812.94;;;29.31;21.63
54816;BME280;40715;55.752;37.884;2024-03-08T03:53:02;98811.41;;;29.28;21.36
54816;BME280;40715;55.752;37.884;2024-03-08T03:55:29;98801.22;;;29.30;21.26
54816;BME280;40715;55.752;37.884;2024-03-08T03:57:56;98810.41;;;29.29;21.41
54816;BME280;40715;55.752;37.884;2024-03-08T04:00:26;98809.53;;;29.29;21.62
54816;BME280;40715;55.752;37.884;2024-03-08T04:02:54;98805.97;;;29.28;21.71
54816;BME280;40715;55.752;37.884;2024-03-08T04:05:23;98808.53;;;29.30;21.54
54816;BME280;40715;55.752;37.884;2024-03-08T04:07:50;98811.06;;;29.31;21.38
54816;BME280;40715;55.752;37.884;2024-03-08T04:10:17;98802.91;;;29.31;21.34
54816;BME280;40715;55.752;37.884;2024-03-08T04:12:45;98792.06;;;29.31;21.69
54816;BME280;40715;55.752;37.884;2024-03-08T04:15:12;98794.78;;;29.31;21.11
54816;BME280;40715;55.752;37.884;2024-03-08T04:17:39;98797.50;;;29.31;21.42
54816;BME280;40715;55.752;37.884;2024-03-08T04:20:06;98793.94;;;29.31;21.55
54816;BME280;40715;55.752;37.884;2024-03-08T04:22:37;98795.78;;;29.30;21.37
54816;BME280;40715;55.752;37.884;2024-03-08T04:25:05;98803.94;;;29.30;21.44
54816;BME280;40715;55.752;37.884;2024-03-08T04:27:33;98792.06;;;29.31;21.39
54816;BME280;40715;55.752;37.884;2024-03-08T04:30:02;98797.66;;;29.30;21.38
54816;BME280;40715;55.752;37.884;2024-03-08T04:32:31;98788.34;;;29.32;21.34
54816;BME280;40715;55.752;37.884;2024-03-08T04:35:00;98784.94;;;29.30;21.19
54816;BME280;40715;55.752;37.884;2024-03-08T04:37:31;98782.22;;;29.30;21.25
54816;BME280;40715;55.752;37.884;2024-03-08T04:39:58;98798.50;;;29.30;21.29
54816;BME280;40715;55.752;37.884;2024-03-08T04:42:29;98785.13;;;29.29;21.45
54816;BME280;40715;55.752;37.884;2024-03-08T04:45:00;98788.88;;;29.27;21.36
54816;BME280;40715;55.752;37.884;2024-03-08T04:47:30;98781.38;;;29.30;21.22
54816;BME280;40715;55.752;37.884;2024-03-08T04:49:57;98784.28;;;29.28;21.38
54816;BME280;40715;55.752;37.884;2024-03-08T04:52:25;98783.44;;;29.27;21.29
54816;BME280;40715;55.752;37.884;2024-03-08T04:54:52;98775.97;;;29.30;21.19
54816;BME280;40715;55.752;37.884;2024-03-08T04:57:19;98783.28;;;29.29;21.30
54816;BME280;40715;55.752;37.884;2024-03-08T04:59:47;98771.38;;;29.30;21.23
54816;BME280;40715;55.752;37.884;2024-03-08T05:02:14;98771.22;;;29.32;21.20
54816;BME280;40715;55.752;37.884;2024-03-08T05:04:41;98770.38;;;29.31;21.31
54816;BME280;40715;55.752;37.884;2024-03-08T05:07:09;98767.81;;;29.30;21.18
54816;BME280;40715;55.752;37.884;2024-03-08T05:09:36;98768.84;;;29.29;21.19
54816;BME280;40715;55.752;37.884;2024-03-08T05:12:04;98765.28;;;29.28;21.16
54816;BME280;40715;55.752;37.884;2024-03-08T05:14:31;98765.13;;;29.30;21.26
54816;BME280;40715;55.752;37.884;2024-03-08T05:16:58;98761.56;;;29.29;21.26
54816;BME280;40715;55.752;37.884;2024-03-08T05:19:27;98761.56;;;29.29;21.45
54816;BME280;40715;55.752;37.884;2024-03-08T05:21:56;98761.22;;;29.32;21.31
54816;BME280;40715;55.752;37.884;2024-03-08T05:24:23;98764.09;;;29.31;21.13
54816;BME280;40715;55.752;37.884;2024-03-08T05:26:50;98758.69;;;29.31;21.13
54816;BME280;40715;55.752;37.884;2024-03-08T05:29:17;98759.69;;;29.30;21.46
54816;BME280;40715;55.752;37.884;2024-03-08T05:31:51;98753.06;;;29.32;21.48
54816;BME280;40715;55.752;37.884;2024-03-08T05:34:19;98752.06;;;29.33;21.23
54816;BME280;40715;55.752;37.884;2024-03-08T05:36:48;98751.03;;;29.34;21.30
54816;BME280;40715;55.752;37.884;2024-03-08T05:39:19;98759.84;;;29.36;21.14
54816;BME280;40715;55.752;37.884;2024-03-08T05:41:50;98755.94;;;29.39;21.38
54816;BME280;40715;55.752;37.884;2024-03-08T05:44:17;98756.78;;;29.39;21.28
54816;BME280;40715;55.752;37.884;2024-03-08T05:46:46;98753.03;;;29.40;21.25
54816;BME280;40715;55.752;37.884;2024-03-08T05:49:14;98754.72;;;29.41;21.39
54816;BME280;40715;55.752;37.884;2024-03-08T05:51:42;98756.59;;;29.41;21.33
54816;BME280;40715;55.752;37.884;2024-03-08T05:54:11;98752.88;;;29.42;21.36
54816;BME280;40715;55.752;37.884;2024-03-08T05:56:40;98757.44;;;29.41;21.41
54816;BME280;40715;55.752;37.884;2024-03-08T05:59:11;98754.53;;;29.43;21.52
54816;BME280;40715;55.752;37.884;2024-03-08T06:01:39;98750.97;;;29.42;21.49
54816;BME280;40715;55.752;37.884;2024-03-08T06:04:08;98745.38;;;29.44;21.33
54816;BME280;40715;55.752;37.884;2024-03-08T06:06:37;98755.22;;;29.45;21.47
54816;BME280;40715;55.752;37.884;2024-03-08T06:09:04;98754.19;;;29.46;21.57
54816;BME280;40715;55.752;37.884;2024-03-08T06:11:44;98752.16;;;29.48;21.18
54816;BME280;40715;55.752;37.884;2024-03-08T06:14:11;98748.59;;;29.48;21.53
54816;BME280;40715;55.752;37.884;2024-03-08T06:16:38;98747.56;;;29.49;21.36
54816;BME280;40715;55.752;37.884;2024-03-08T06:19:05;98745.19;;;29.46;21.67
54816;BME280;40715;55.752;37.884;2024-03-08T06:21:33;98740.47;;;29.48;21.58
54816;BME280;40715;55.752;37.884;2024-03-08T06:24:00;98753.84;;;29.49;22.09
54816;BME280;40715;55.752;37.884;2024-03-08T06:26:27;98743.00;;;29.49;21.85
54816;BME280;40715;55.752;37.884;2024-03-08T06:28:58;98744.84;;;29.49;22.11
54816;BME280;40715;55.752;37.884;2024-03-08T06:31:25;98745.69;;;29.49;22.19
54816;BME280;40715;55.752;37.884;2024-03-08T06:33:53;98743.00;;;29.49;22.33
54816;BME280;40715;55.752;37.884;2024-03-08T06:36:22;98751.13;;;29.49;22.36
54816;BME280;40715;55.752;37.884;2024-03-08T06:38:49;98743.81;;;29.50;22.32
54816;BME280;40715;55.752;37.884;2024-03-08T06:41:16;98750.13;;;29.50;22.48
54816;BME280;40715;55.752;37.884;2024-03-08T06:43:47;98741.97;;;29.50;22.45
54816;BME280;40715;55.752;37.884;2024-03-08T06:46:15;98745.16;;;29.54;22.67
54816;BME280;40715;55.752;37.884;2024-03-08T06:48:43;98750.78;;;29.52;23.08
54816;BME280;40715;55.752;37.884;2024-03-08T06:51:10;98754.13;;;29.54;22.83
54816;BME280;40715;55.752;37.884;2024-03-08T06:53:38;98743.97;;;29.56;23.13
54816;BME280;40715;55.752;37.884;2024-03-08T06:56:08;98752.94;;;29.57;23.03
54816;BME280;40715;55.752;37.884;2024-03-08T06:58:35;98746.50;;;29.58;23.46
54816;BME280;40715;55.752;37.884;2024-03-08T07:01:02;98750.03;;;29.58;23.41
54816;BME280;40715;55.752;37.884;2024-03-08T07:03:31;98742.59;;;29.60;23.72
54816;BME280;40715;55.752;37.884;2024-03-08T07:05:59;98749.19;;;29.66;23.70
54816;BME280;40715;55.752;37.884;2024-03-08T07:08:26;98752.34;;;29.70;23.75
54816;BME280;40715;55.752;37.884;2024-03-08T07:10:56;98743.69;;;29.74;23.69
54816;BME280;40715;55.752;37.884;2024-03-08T07:13:25;98756.22;;;29.75;23.76
54816;BME280;40715;55.752;37.884;2024-03-08T07:15:53;98751.47;;;29.77;23.55
54816;BME280;40715;55.752;37.884;2024-03-08T07:18:20;98755.72;;;29.80;23.73
54816;BME280;40715;55.752;37.884;2024-03-08T07:20:48;98750.09;;;29.82;23.54
54816;BME280;40715;55.752;37.884;2024-03-08T07:23:16;98761.47;;;29.85;23.60
54816;BME280;40715;55.752;37.884;2024-03-08T07:26:09;98754.28;;;29.92;23.79
54816;BME280;40715;55.752;37.884;2024-03-08T07:28:36;98760.59;;;29.93;24.05
54816;BME280;40715;55.752;37.884;2024-03-08T07:31:03;98758.69;;;29.93;23.91
54816;BME280;40715;55.752;37.884;2024-03-08T07:33:48;98749.34;;;29.96;23.92
54816;BME280;40715;55.752;37.884;2024-03-08T07:36:17;98752.25;;;29.94;24.10
54816;BME280;40715;55.752;37.884;2024-03-08T07:38:44;98746.81;;;29.94;24.27
54816;BME280;40715;55.752;37.884;2024-03-08T07:41:15;98747.84;;;29.93;24.11
54816;BME280;40715;55.752;37.884;2024-03-08T07:43:43;98760.22;;;29.96;24.10
54816;BME280;40715;55.752;37.884;2024-03-08T07:46:10;98759.16;;;29.97;24.06
54816;BME280;40715;55.752;37.884;2024-03-08T07:48:37;98757.13;;;29.99;23.83
54816;BME280;40715;55.752;37.884;2024-03-08T07:51:04;98753.22;;;30.02;23.81
54816;BME280;40715;55.752;37.884;2024-03-08T07:53:32;98750.31;;;30.03;23.63
54816;BME280;40715;55.752;37.884;2024-03-08T07:55:59;98742.81;;;30.05;23.73
54816;BME280;40715;55.752;37.884;2024-03-08T07:58:27;98742.81;;;30.05;23.71
54816;BME280;40715;55.752;37.884;2024-03-08T08:00:55;98747.41;;;30.05;23.41
54816;BME280;40715;55.752;37.884;2024-03-08T08:03:22;98739.47;;;30.03;23.35
54816;BME280;40715;55.752;37.884;2024-03-08T08:05:49;98733.84;;;30.05;23.38
54816;BME280;40715;55.752;37.884;2024-03-08T08:08:16;98737.56;;;30.04;23.53
54816;BME280;40715;55.752;37.884;2024-03-08T08:10:43;98730.25;;;30.04;23.40
54816;BME280;40715;55.752;37.884;2024-03-08T08:13:10;98728.97;;;30.00;23.40
54816;BME280;40715;55.752;37.884;2024-03-08T08:15:38;98730.25;;;30.04;23.23
54816;BME280;40715;55.752;37.884;2024-03-08T08:18:05;98732.97;;;30.04;22.96
54816;BME280;40715;55.752;37.884;2024-03-08T08:20:33;98737.38;;;30.05;22.71
54816;BME280;40715;55.752;37.884;2024-03-08T08:23:00;98734.03;;;30.03;23.00
54816;BME280;40715;55.752;37.884;2024-03-08T08:25:27;98735.69;;;30.04;22.86
54816;BME280;40715;55.752;37.884;2024-03-08T08:27:54;98732.97;;;30.04;22.90
54816;BME280;40715;55.752;37.884;2024-03-08T08:30:21;98733.34;;;30.01;22.72
54816;BME280;40715;55.752;37.884;2024-03-08T08:32:48;98727.06;;;30.01;22.72
54816;BME280;40715;55.752;37.884;2024-03-08T08:35:16;98718.28;;;29.99;22.67
54816;BME280;40715;55.752;37.884;2024-03-08T08:37:43;98733.16;;;30.03;22.51
54816;BME280;40715;55.752;37.884;2024-03-08T08:40:11;98724.00;;;30.04;22.47
54816;BME280;40715;55.752;37.884;2024-03-08T08:42:41;98732.13;;;30.04;22.41
54816;BME280;40715;55.752;37.884;2024-03-08T08:45:09;98734.22;;;30.02;22.48
54816;BME280;40715;55.752;37.884;2024-03-08T08:47:41;98745.72;;;30.04;22.18
54816;BME280;40715;55.752;37.884;2024-03-08T08:50:09;98744.88;;;30.03;22.33
54816;BME280;40715;55.752;37.884;2024-03-08T08:52:39;98736.75;;;30.03;22.15
54816;BME280;40715;55.752;37.884;2024-03-08T08:55:07;98736.38;;;30.06;22.10
54816;BME280;40715;55.752;37.884;2024-03-08T08:57:35;98726.53;;;30.05;22.02
54816;BME280;40715;55.752;37.884;2024-03-08T09:00:03;98729.25;;;30.05;22.02
54816;BME280;40715;55.752;37.884;2024-03-08T09:02:34;98724.69;;;30.06;22.04
54816;BME280;40715;55.752;37.884;2024-03-08T09:05:02;98722.78;;;30.06;21.73
54816;BME280;40715;55.752;37.884;2024-03-08T09:07:29;98722.59;;;30.08;21.64
54816;BME280;40715;55.752;37.884;2024-03-08T09:09:56;98725.81;;;30.11;21.68
54816;BME280;40715;55.752;37.884;2024-03-08T09:12:26;98721.03;;;30.13;21.76
54816;BME280;40715;55.752;37.884;2024-03-08T09:14:53;98713.91;;;30.12;21.67
54816;BME280;40715;55.752;37.884;2024-03-08T09:17:20;98716.81;;;30.11;21.85
54816;BME280;40715;55.752;37.884;2024-03-08T09:19:47;98713.06;;;30.12;21.66
54816;BME280;40715;55.752;37.884;2024-03-08T09:22:15;98715.97;;;30.10;21.53
54816;BME280;40715;55.752;37.884;2024-03-08T09:24:42;98713.25;;;30.10;21.24
54816;BME280;40715;55.752;37.884;2024-03-08T09:27:12;98709.84;;;30.08;21.34
54816;BME280;40715;55.752;37.884;2024-03-08T09:29:40;98708.66;;;30.11;21.51
54816;BME280;40715;55.752;37.884;2024-03-08T09:32:07;98714.97;;;30.11;21.48
54816;BME280;40715;55.752;37.884;2024-03-08T09:34:34;98707.81;;;30.10;21.53
54816;BME280;40715;55.752;37.884;2024-03-08T09:37:03;98708.00;;;30.09;21.57
54816;BME280;40715;55.752;37.884;2024-03-08T09:39:31;98710.53;;;30.10;21.11
54816;BME280;40715;55.752;37.884;2024-03-08T09:42:01;98707.16;;;30.08;21.24
54816;BME280;40715;55.752;37.884;2024-03-08T09:44:28;98707.16;;;30.08;21.30
54816;BME280;40715;55.752;37.884;2024-03-08T09:46:58;98715.47;;;30.07;21.09
54816;BME280;40715;55.752;37.884;2024-03-08T09:49:26;98708.00;;;30.09;21.25
54816;BME280;40715;55.752;37.884;2024-03-08T09:51:53;98707.16;;;30.08;21.02
54816;BME280;40715;55.752;37.884;2024-03-08T09:54:20;98716.34;;;30.07;21.04
54816;BME280;40715;55.752;37.884;2024-03-08T09:56:51;98709.84;;;30.08;20.98
54816;BME280;40715;55.752;37.884;2024-03-08T09:59:19;98720.72;;;30.08;21.23
54816;BME280;40715;55.752;37.884;2024-03-08T10:01:57;98714.09;;;30.11;21.27
54816;BME280;40715;55.752;37.884;2024-03-08T10:04:26;98703.41;;;30.09;21.04
54816;BME280;40715;55.752;37.884;2024-03-08T10:06:55;98711.38;;;30.11;21.10
54816;BME280;40715;55.752;37.884;2024-03-08T10:09:23;98712.38;;;30.10;20.75
54816;BME280;40715;55.752;37.884;2024-03-08T10:12:01;98712.88;;;30.13;20.97
54816;BME280;40715;55.752;37.884;2024-03-08T10:14:29;98708.34;;;30.67;20.50
54816;BME280;40715;55.752;37.884;2024-03-08T10:16:57;98705.22;;;30.17;20.61
54816;BME280;40715;55.752;37.884;2024-03-08T10:19:27;98709.03;;;30.08;20.94
54816;BME280;40715;55.752;37.884;2024-03-08T10:21:57;98706.50;;;30.06;20.98
54816;BME280;40715;55.752;37.884;2024-03-08T10:24:26;98703.78;;;30.06;20.97
54816;BME280;40715;55.752;37.884;2024-03-08T10:26:58;98713.63;;;30.07;20.58
54816;BME280;40715;55.752;37.884;2024-03-08T10:29:26;98699.00;;;30.08;20.91
54816;BME280;40715;55.752;37.884;2024-03-08T10:31:53;98705.47;;;30.07;20.75
54816;BME280;40715;55.752;37.884;2024-03-08T10:34:23;98702.56;;;30.09;20.43
54816;BME280;40715;55.752;37.884;2024-03-08T10:36:51;98702.56;;;30.09;20.49
54816;BME280;40715;55.752;37.884;2024-03-08T10:39:22;98709.03;;;30.08;20.79
54816;BME280;40715;55.752;37.884;2024-03-08T10:42:02;98705.75;;;30.12;20.56
54816;BME280;40715;55.752;37.884;2024-03-08T10:47:01;98713.25;;;30.10;20.42
54816;BME280;40715;55.752;37.884;2024-03-08T10:49:38;98709.34;;;30.13;20.25
54816;BME280;40715;55.752;37.884;2024-03-08T10:52:06;98710.53;;;30.10;20.46
54816;BME280;40715;55.752;37.884;2024-03-08T10:54:37;98702.56;;;30.09;20.59
54816;BME280;40715;55.752;37.884;2024-03-08T10:57:09;98712.25;;;30.11;20.41
54816;BME280;40715;55.752;37.884;2024-03-08T10:59:39;98688.81;;;30.10;20.62
54816;BME280;40715;55.752;37.884;2024-03-08T11:02:06;98696.97;;;30.10;20.56
54816;BME280;40715;55.752;37.884;2024-03-08T11:04:33;98698.66;;;30.11;20.33
54816;BME280;40715;55.752;37.884;2024-03-08T11:07:02;98690.84;;;30.08;20.44
54816;BME280;40715;55.752;37.884;2024-03-08T11:09:36;98692.72;;;30.08;20.66
54816;BME280;40715;55.752;37.884;2024-03-08T11:12:26;98687.22;;;30.16;20.48
54816;BME280;40715;55.752;37.884;2024-03-08T11:14:59;98689.66;;;30.11;20.00
54816;BME280;40715;55.752;37.884;2024-03-08T11:19:58;98683.38;;;30.10;20.17
54816;BME280;40715;55.752;37.884;2024-03-08T11:22:32;98691.34;;;30.12;20.23
54816;BME280;40715;55.752;37.884;2024-03-08T11:25:08;98690.78;;;30.17;19.95
54816;BME280;40715;55.752;37.884;2024-03-08T11:27:39;98681.31;;;30.12;19.91
54816;BME280;40715;55.752;37.884;2024-03-08T11:30:22;98678.97;;;30.09;20.42
54816;BME280;40715;55.752;37.884;2024-03-08T11:32:51;98676.25;;;30.09;20.28
54816;BME280;40715;55.752;37.884;2024-03-08T11:35:22;98681.03;;;30.07;20.12
54816;BME280;40715;55.752;37.884;2024-03-08T11:37:52;98670.16;;;30.07;19.91
54816;BME280;40715;55.752;37.884;2024-03-08T11:40:21;98680.34;;;30.05;20.03
54816;BME280;40715;55.752;37.884;2024-03-08T11:42:49;98679.34;;;30.06;20.26
54816;BME280;40715;55.752;37.884;2024-03-08T11:45:19;98681.38;;;30.04;20.08
54816;BME280;40715;55.752;37.884;2024-03-08T11:47:48;98683.94;;;30.06;20.27
54816;BME280;40715;55.752;37.884;2024-03-08T11:50:16;98683.06;;;30.05;19.84
54816;BME280;40715;55.752;37.884;2024-03-08T11:52:45;98677.63;;;30.05;19.98
54816;BME280;40715;55.752;37.884;2024-03-08T11:55:12;98680.72;;;30.02;19.81
54816;BME280;40715;55.752;37.884;2024-03-08T11:57:40;98683.25;;;30.04;20.08
54816;BME280;40715;55.752;37.884;2024-03-08T12:00:15;98682.06;;;30.06;19.98
54816;BME280;40715;55.752;37.884;2024-03-08T12:03:07;98684.88;;;30.13;19.99
54816;BME280;40715;55.752;37.884;2024-03-08T12:05:34;98694.81;;;30.06;19.90
54816;BME280;40715;55.752;37.884;2024-03-08T12:08:05;98686.16;;;30.02;20.01
54816;BME280;40715;55.752;37.884;2024-03-08T12:10:34;98688.69;;;30.04;20.03
54816;BME280;40715;55.752;37.884;2024-03-08T12:13:02;98685.13;;;30.03;19.82
54816;BME280;40715;55.752;37.884;2024-03-08T12:15:39;98687.47;;;30.06;20.00
54816;BME280;40715;55.752;37.884;2024-03-08T12:18:06;98691.41;;;30.04;19.91
54816;BME280;40715;55.752;37.884;2024-03-08T12:20:34;98691.59;;;30.02;19.79
54816;BME280;40715;55.752;37.884;2024-03-08T12:23:02;98692.41;;;30.03;19.61
54816;BME280;40715;55.752;37.884;2024-03-08T12:25:31;98698.53;;;30.05;19.73
54816;BME280;40715;55.752;37.884;2024-03-08T12:28:09;98692.53;;;30.09;19.79
54816;BME280;40715;55.752;37.884;2024-03-08T12:30:49;98697.16;;;30.09;19.66
54816;BME280;40715;55.752;37.884;2024-03-08T12:33:17;98690.84;;;30.08;19.67
54816;BME280;40715;55.752;37.884;2024-03-08T12:35:52;98693.56;;;30.08;20.13
54816;BME280;40715;55.752;37.884;2024-03-08T12:38:22;98683.19;;;30.12;20.11
54816;BME280;40715;55.752;37.884;2024-03-08T12:40:58;98682.88;;;30.07;20.04
54816;BME280;40715;55.752;37.884;2024-03-08T12:43:25;98665.75;;;30.06;20.11
54816;BME280;40715;55.752;37.884;2024-03-08T12:45:53;98687.94;;;30.10;19.99
54816;BME280;40715;55.752;37.884;2024-03-08T12:48:21;98698.81;;;30.10;19.91
54816;BME280;40715;55.752;37.884;2024-03-08T12:50:48;98700.69;;;30.09;19.84
54816;BME280;40715;55.752;37.884;2024-03-08T12:53:17;98702.41;;;30.10;20.03
54816;BME280;40715;55.752;37.884;2024-03-08T12:55:45;98708.19;;;30.07;19.94
54816;BME280;40715;55.752;37.884;2024-03-08T12:58:12;98702.41;;;30.10;20.04
54816;BME280;40715;55.752;37.884;2024-03-08T13:00:39;98703.41;;;30.09;20.13
54816;BME280;40715;55.752;37.884;2024-03-08T13:03:10;98699.00;;;30.08;20.18
54816;BME280;40715;55.752;37.884;2024-03-08T13:05:38;98703.41;;;30.09;20.09